createdAt,value
2019-05-15T00:02:23.426Z,101372.79
2019-05-15T00:04:52.282Z,101376.08
2019-05-15T00:07:20.808Z,101376.56
2019-05-15T00:09:49.368Z,101374.12
2019-05-15T00:12:18.885Z,101369.75
2019-05-15T00:14:48.447Z,101367.94
2019-05-15T00:17:19.183Z,101370.44
2019-05-15T00:19:48.583Z,101367.50
2019-05-15T00:22:18.343Z,101362.41
2019-05-15T00:24:48.839Z,101373.37
2019-05-15T00:27:20.016Z,101364.33
2019-05-15T00:29:48.671Z,101368.92
2019-05-15T00:32:18.638Z,101360.92
2019-05-15T00:34:48.810Z,101359.11
2019-05-15T00:37:18.212Z,101349.90
2019-05-15T00:39:48.594Z,101352.22
2019-05-15T00:42:19.008Z,101350.52
2019-05-15T00:44:49.395Z,101350.66
2019-05-15T00:47:18.214Z,101349.72
2019-05-15T00:49:48.806Z,101343.28
2019-05-15T00:52:18.083Z,101339.91
2019-05-15T00:54:48.421Z,101339.55
2019-05-15T00:57:19.055Z,101335.41
2019-05-15T00:59:48.359Z,101336.37
2019-05-15T01:02:17.893Z,101341.70
2019-05-15T01:04:47.981Z,101328.73
2019-05-15T01:07:18.793Z,101329.70
2019-05-15T01:09:48.730Z,101329.70
2019-05-15T01:12:18.452Z,101322.67
2019-05-15T01:14:48.970Z,101325.16
2019-05-15T01:17:18.450Z,101326.13
2019-05-15T01:19:48.211Z,101318.92
2019-05-15T01:22:19.327Z,101316.86
2019-05-15T01:24:48.556Z,101318.78
2019-05-15T01:27:18.401Z,101316.34
2019-05-15T01:29:49.374Z,101314.87
2019-05-15T01:32:19.057Z,101308.03
2019-05-15T01:34:49.013Z,101308.37
2019-05-15T01:37:18.874Z,101299.38
2019-05-15T01:39:48.558Z,101304.23
2019-05-15T01:42:18.587Z,101293.69
2019-05-15T01:44:48.470Z,101296.91
2019-05-15T01:47:19.012Z,101300.91
2019-05-15T01:49:49.092Z,101296.28
2019-05-15T01:52:18.699Z,101299.66
2019-05-15T01:54:48.899Z,101297.33
2019-05-15T01:57:18.153Z,101298.28
2019-05-15T01:59:54.772Z,101299.44
2019-05-15T02:02:18.678Z,101299.07
2019-05-15T02:04:48.648Z,101301.73
2019-05-15T02:07:18.694Z,101296.25
2019-05-15T02:09:49.210Z,101291.82
2019-05-15T02:12:19.144Z,101296.11
2019-05-15T02:14:48.572Z,101289.75
2019-05-15T02:17:18.959Z,101290.70
2019-05-15T02:19:48.513Z,101292.89
2019-05-15T02:22:18.923Z,101296.36
2019-05-15T02:24:48.296Z,101291.30
2019-05-15T02:27:18.604Z,101282.86
2019-05-15T02:29:49.287Z,101294.05
2019-05-15T02:32:19.321Z,101288.52
2019-05-15T02:34:50.078Z,101290.22
2019-05-15T02:37:19.221Z,101285.38
2019-05-15T02:39:49.620Z,101288.63
2019-05-15T02:42:19.207Z,101288.03
2019-05-15T02:44:49.965Z,101284.52
2019-05-15T02:47:19.915Z,101283.56
2019-05-15T02:49:48.824Z,101278.94
2019-05-15T02:52:19.902Z,101281.81
2019-05-15T02:54:49.874Z,101277.11
2019-05-15T02:57:19.225Z,101277.81
2019-05-15T02:59:49.880Z,101277.22
2019-05-15T03:02:19.118Z,101282.28
2019-05-15T03:04:48.610Z,101275.62
2019-05-15T03:07:19.299Z,101274.98
2019-05-15T03:09:49.679Z,101272.06
2019-05-15T03:12:19.553Z,101270.84
2019-05-15T03:14:49.136Z,101270.92
2019-05-15T03:17:19.049Z,101263.52
2019-05-15T03:19:49.834Z,101274.37
2019-05-15T03:22:19.501Z,101269.98
2019-05-15T03:24:50.241Z,101269.72
2019-05-15T03:27:19.720Z,101265.92
2019-05-15T03:29:49.417Z,101258.38
2019-05-15T03:32:32.170Z,101260.27
2019-05-15T03:34:55.649Z,101257.61
2019-05-15T03:37:22.166Z,101260.37
2019-05-15T03:39:51.720Z,101254.27
2019-05-15T03:42:19.370Z,101259.30
2019-05-15T03:44:50.274Z,101262.33
2019-05-15T03:47:19.453Z,101260.52
2019-05-15T03:49:49.430Z,101255.84
2019-05-15T03:52:19.144Z,101256.41
2019-05-15T03:54:49.553Z,101261.72
2019-05-15T03:57:22.675Z,101256.00
2019-05-15T03:59:48.944Z,101256.95
2019-05-15T04:02:19.399Z,101258.48
2019-05-15T04:04:50.241Z,101260.45
2019-05-15T04:07:18.958Z,101252.73
2019-05-15T04:09:49.375Z,101259.53
2019-05-15T04:12:19.595Z,101261.95
2019-05-15T04:14:49.991Z,101264.73
2019-05-15T04:17:19.764Z,101258.95
2019-05-15T04:19:49.668Z,101258.58
2019-05-15T04:22:19.757Z,101259.13
2019-05-15T04:24:49.601Z,101260.23
2019-05-15T04:27:19.746Z,101261.61
2019-05-15T04:29:49.201Z,101255.99
2019-05-15T04:32:20.001Z,101266.45
2019-05-15T04:34:48.908Z,101255.85
2019-05-15T04:37:18.994Z,101261.38
2019-05-15T04:39:49.141Z,101252.27
2019-05-15T04:42:20.295Z,101257.61
2019-05-15T04:44:49.529Z,101253.87
2019-05-15T04:47:19.222Z,101262.77
2019-05-15T04:49:50.435Z,101263.52
2019-05-15T04:52:19.460Z,101272.52
2019-05-15T04:54:49.343Z,101274.55
2019-05-15T04:57:19.383Z,101273.67
2019-05-15T04:59:49.735Z,101271.16
2019-05-15T05:02:26.672Z,101267.36
2019-05-15T05:04:49.469Z,101277.52
2019-05-15T05:07:18.915Z,101281.69
2019-05-15T05:09:48.975Z,101280.87
2019-05-15T05:12:19.239Z,101281.61
2019-05-15T05:14:48.457Z,101275.13
2019-05-15T05:17:19.511Z,101276.48
2019-05-15T05:19:47.867Z,101284.82
2019-05-15T05:22:18.747Z,101271.49
2019-05-15T05:24:47.830Z,101279.61
2019-05-15T05:27:18.275Z,101276.48
2019-05-15T05:29:48.034Z,101275.89
2019-05-15T05:32:30.527Z,101276.23
2019-05-15T05:34:48.325Z,101277.70
2019-05-15T05:37:18.471Z,101284.08
2019-05-15T05:39:48.345Z,101289.05
2019-05-15T05:42:18.489Z,101288.61
2019-05-15T05:44:48.850Z,101284.52
2019-05-15T05:47:18.320Z,101285.36
2019-05-15T05:49:48.846Z,101285.16
2019-05-15T05:52:18.547Z,101293.02
2019-05-15T05:54:48.992Z,101290.44
2019-05-15T05:57:19.372Z,101292.13
2019-05-15T05:59:49.000Z,101282.29
2019-05-15T06:02:18.611Z,101283.77
2019-05-15T06:04:47.966Z,101279.45
2019-05-15T06:07:18.527Z,101282.67
2019-05-15T06:09:48.650Z,101280.11
2019-05-15T06:12:18.847Z,101281.81
2019-05-15T06:14:48.502Z,101285.02
2019-05-15T06:17:19.076Z,101286.30
2019-05-15T06:19:48.148Z,101286.33
2019-05-15T06:22:18.799Z,101287.17
2019-05-15T06:24:48.511Z,101287.39
2019-05-15T06:27:17.188Z,101289.35
2019-05-15T06:29:45.700Z,101288.42
2019-05-15T06:32:14.205Z,101290.02
2019-05-15T06:34:42.709Z,101288.53
2019-05-15T06:37:11.209Z,101290.58
2019-05-15T06:39:39.728Z,101296.39
2019-05-15T06:42:08.805Z,101294.66
2019-05-15T06:44:38.844Z,101297.66
2019-05-15T06:47:08.161Z,101300.86
2019-05-15T06:49:37.826Z,101298.47
2019-05-15T06:52:08.659Z,101305.57
2019-05-15T06:54:37.776Z,101296.59
2019-05-15T06:57:09.111Z,101302.17
2019-05-15T06:59:38.956Z,101308.30
2019-05-15T07:02:08.141Z,101298.17
2019-05-15T07:04:38.340Z,101287.27
2019-05-15T07:07:10.674Z,101284.28
2019-05-15T07:09:38.002Z,101293.64
2019-05-15T07:12:08.012Z,101287.50
2019-05-15T07:14:37.952Z,101283.03
2019-05-15T07:17:09.173Z,101279.20
2019-05-15T07:19:39.258Z,101276.67
2019-05-15T07:22:09.191Z,101281.86
2019-05-15T07:24:38.369Z,101275.26
2019-05-15T07:27:07.970Z,101281.14
2019-05-15T07:29:38.553Z,101278.30
2019-05-15T07:32:08.031Z,101276.97
2019-05-15T07:34:37.913Z,101270.97
2019-05-15T07:37:09.604Z,101278.02
2019-05-15T07:39:38.189Z,101273.87
2019-05-15T07:42:08.597Z,101264.88
2019-05-15T07:44:38.884Z,101267.09
2019-05-15T07:47:08.848Z,101258.45
2019-05-15T07:49:38.803Z,101260.84
2019-05-15T07:52:08.640Z,101257.00
2019-05-15T07:54:38.336Z,101254.09
2019-05-15T07:57:08.873Z,101258.59
2019-05-15T07:59:38.678Z,101250.70
2019-05-15T08:02:08.391Z,101256.64
2019-05-15T08:04:38.055Z,101250.59
2019-05-15T08:07:08.977Z,101252.56
2019-05-15T08:09:39.149Z,101256.56
2019-05-15T08:12:08.257Z,101251.31
2019-05-15T08:14:38.747Z,101244.98
2019-05-15T08:17:08.700Z,101251.88
2019-05-15T08:19:38.387Z,101242.22
2019-05-15T08:22:08.912Z,101253.03
2019-05-15T08:24:39.207Z,101251.59
2019-05-15T08:27:08.339Z,101238.84
2019-05-15T08:29:38.355Z,101242.12
2019-05-15T08:32:08.419Z,101239.81
2019-05-15T08:34:38.644Z,101233.45
2019-05-15T08:37:07.951Z,101239.72
2019-05-15T08:39:38.153Z,101235.65
2019-05-15T08:42:07.995Z,101233.48
2019-05-15T08:44:38.657Z,101227.05
2019-05-15T08:47:08.171Z,101234.56
2019-05-15T08:49:41.055Z,101223.91
2019-05-15T08:52:09.990Z,101218.86
2019-05-15T08:54:38.291Z,101231.23
2019-05-15T08:57:08.431Z,101229.83
2019-05-15T08:59:38.108Z,101223.63
2019-05-15T09:02:07.898Z,101217.33
2019-05-15T09:04:38.658Z,101205.40
2019-05-15T09:07:09.165Z,101202.73
2019-05-15T09:09:38.342Z,101204.92
2019-05-15T09:12:08.260Z,101197.36
2019-05-15T09:14:38.020Z,101199.02
2019-05-15T09:17:08.695Z,101191.34
2019-05-15T09:19:38.817Z,101191.32
2019-05-15T09:22:09.145Z,101183.86
2019-05-15T09:24:37.987Z,101178.73
2019-05-15T09:27:09.806Z,101174.88
2019-05-15T09:29:38.076Z,101165.93
2019-05-15T09:32:08.594Z,101165.89
2019-05-15T09:34:47.777Z,101165.45
2019-05-15T09:37:08.606Z,101162.17
2019-05-15T09:39:38.114Z,101153.50
2019-05-15T09:42:08.427Z,101157.59
2019-05-15T09:44:39.034Z,101152.39
2019-05-15T09:47:09.126Z,101150.91
2019-05-15T09:49:39.127Z,101152.55
2019-05-15T09:52:09.008Z,101145.97
2019-05-15T09:54:38.694Z,101144.84
2019-05-15T09:57:10.819Z,101127.52
2019-05-15T09:59:39.065Z,101124.87
2019-05-15T10:02:09.207Z,101131.39
2019-05-15T10:04:38.977Z,101128.66
2019-05-15T10:07:08.296Z,101116.09
2019-05-15T10:09:38.896Z,101120.06
2019-05-15T10:12:09.069Z,101114.02
2019-05-15T10:14:38.609Z,101113.78
2019-05-15T10:17:09.187Z,101104.16
2019-05-15T10:19:38.117Z,101108.77
2019-05-15T10:22:09.522Z,101099.40
2019-05-15T10:24:36.974Z,101095.21
2019-05-15T10:27:05.597Z,101089.34
2019-05-15T10:29:34.100Z,101098.19
2019-05-15T10:32:02.661Z,101086.05
2019-05-15T10:34:31.190Z,101089.42
2019-05-15T10:36:59.749Z,101088.09
2019-05-15T10:39:28.900Z,101087.94
2019-05-15T10:41:57.526Z,101086.59
2019-05-15T10:44:28.429Z,101091.55
2019-05-15T10:46:58.502Z,101077.57
2019-05-15T10:49:28.213Z,101079.96
2019-05-15T10:51:56.877Z,101067.69
2019-05-15T10:54:25.475Z,101077.61
2019-05-15T10:56:53.996Z,101079.80
2019-05-15T10:59:22.510Z,101079.35
2019-05-15T11:01:51.005Z,101076.73
2019-05-15T11:04:19.596Z,101074.80
2019-05-15T11:06:49.045Z,101073.01
2019-05-15T11:09:18.565Z,101061.58
2019-05-15T11:11:51.192Z,101059.26
2019-05-15T11:14:18.433Z,101065.34
2019-05-15T11:16:48.602Z,101050.53
2019-05-15T11:19:17.367Z,101053.81
2019-05-15T11:21:48.494Z,101051.70
2019-05-15T11:24:16.471Z,101058.13
2019-05-15T11:26:45.294Z,101060.14
2019-05-15T11:29:13.829Z,101044.97
2019-05-15T11:31:42.350Z,101050.26
2019-05-15T11:34:12.154Z,101039.20
2019-05-15T11:36:40.609Z,101043.87
2019-05-15T11:39:09.217Z,101036.22
2019-05-15T11:41:38.646Z,101029.87
2019-05-15T11:44:07.308Z,101023.59
2019-05-15T11:46:35.837Z,101023.31
2019-05-15T11:49:04.352Z,101020.56
2019-05-15T11:51:32.837Z,101019.55
2019-05-15T11:54:01.324Z,101024.28
2019-05-15T11:56:29.916Z,101023.36
2019-05-15T11:58:58.416Z,101009.48
2019-05-15T12:01:28.798Z,101002.64
2019-05-15T12:03:58.561Z,100998.16
2019-05-15T12:06:29.232Z,100998.08
2019-05-15T12:08:59.162Z,101005.51
2019-05-15T12:11:36.614Z,100998.30
2019-05-15T12:13:59.672Z,100987.53
2019-05-15T12:16:29.042Z,100997.76
2019-05-15T12:19:08.435Z,100994.01
2019-05-15T12:21:28.680Z,100982.61
2019-05-15T12:23:59.112Z,100985.63
2019-05-15T12:26:29.206Z,100985.13
2019-05-15T12:28:58.952Z,100980.38
2019-05-15T12:31:27.780Z,100992.91
2019-05-15T12:33:58.469Z,100991.23
2019-05-15T12:36:47.291Z,100986.93
2019-05-15T12:38:56.814Z,100987.30
2019-05-15T13:01:29.577Z,100963.36
2019-05-15T13:03:58.501Z,100972.55
2019-05-15T13:06:28.555Z,100973.72
2019-05-15T13:08:59.444Z,100965.72
2019-05-15T13:11:28.466Z,100952.50
2019-05-15T13:13:59.107Z,100960.83
2019-05-15T13:16:28.147Z,100960.83
2019-05-15T13:18:58.841Z,100962.22
2019-05-15T13:21:29.470Z,100948.09
2019-05-15T13:23:58.629Z,100950.12
2019-05-15T13:26:27.492Z,100948.91
2019-05-15T13:28:58.350Z,100935.97
2019-05-15T13:31:28.452Z,100941.50
2019-05-15T13:33:58.753Z,100940.98
2019-05-15T13:36:28.852Z,100943.43
2019-05-15T13:38:57.918Z,100944.59
2019-05-15T13:41:28.171Z,100937.87
2019-05-15T13:43:58.405Z,100939.13
2019-05-15T13:46:29.091Z,100936.13
2019-05-15T13:48:59.443Z,100929.31
2019-05-15T13:51:29.015Z,100924.28
2019-05-15T13:53:57.761Z,100923.40
2019-05-15T13:56:26.251Z,100930.55
2019-05-15T13:58:54.792Z,100918.89
2019-05-15T14:01:23.317Z,100912.13
2019-05-15T14:03:51.864Z,100903.64
2019-05-15T14:06:20.370Z,100903.73
2019-05-15T14:08:49.007Z,100911.16
2019-05-15T14:11:21.491Z,100915.87
2019-05-15T14:13:48.601Z,100909.23
2019-05-15T14:16:19.221Z,100900.22
2019-05-15T14:18:48.012Z,100908.52
2019-05-15T14:21:18.441Z,100897.94
2019-05-15T14:23:47.969Z,100896.18
2019-05-15T14:26:20.263Z,100901.36
2019-05-15T14:28:48.071Z,100900.89
2019-05-15T14:31:18.291Z,100897.53
2019-05-15T14:33:48.732Z,100886.56
2019-05-15T14:36:18.435Z,100886.65
2019-05-15T14:38:48.502Z,100882.30
2019-05-15T14:41:18.964Z,100879.48
2019-05-15T14:43:48.414Z,100870.73
2019-05-15T14:46:18.562Z,100873.88
2019-05-15T14:48:49.109Z,100870.55
2019-05-15T14:51:19.276Z,100869.76
2019-05-15T14:53:48.995Z,100867.39
2019-05-15T14:56:18.556Z,100879.52
2019-05-15T14:58:48.017Z,100873.45
2019-05-15T15:01:18.491Z,100867.27
2019-05-15T15:03:48.800Z,100868.05
2019-05-15T15:06:18.156Z,100860.23
2019-05-15T15:08:48.660Z,100857.92
2019-05-15T15:11:17.933Z,100864.16
2019-05-15T15:13:46.544Z,100862.52
2019-05-15T15:16:15.064Z,100857.80
2019-05-15T15:18:43.887Z,100865.53
2019-05-15T15:21:12.528Z,100858.91
2019-05-15T15:23:41.091Z,100864.69
2019-05-15T15:26:09.668Z,100870.09
2019-05-15T15:28:40.250Z,100859.39
2019-05-15T15:31:08.465Z,100856.53
2019-05-15T15:33:39.204Z,100849.16
2019-05-15T15:36:08.833Z,100852.82
2019-05-15T15:38:43.383Z,100855.15
2019-05-15T15:41:08.549Z,100868.42
2019-05-15T15:43:38.711Z,100859.50
2019-05-15T15:46:08.594Z,100853.63
2019-05-15T15:48:39.051Z,100859.00
2019-05-15T15:51:09.153Z,100854.11
2019-05-15T15:53:39.077Z,100851.17
2019-05-15T15:56:10.540Z,100851.88
2019-05-15T15:58:38.088Z,100855.82
2019-05-15T16:01:08.927Z,100854.84
2019-05-15T16:03:38.029Z,100848.10
2019-05-15T16:06:06.613Z,100850.95
2019-05-15T16:08:48.105Z,100852.73
2019-05-15T16:11:05.403Z,100847.90
2019-05-15T16:13:33.911Z,100848.90
2019-05-15T16:16:02.464Z,100855.11
2019-05-15T16:18:30.964Z,100850.87
2019-05-15T16:20:59.481Z,100847.42
2019-05-15T16:23:28.506Z,100846.11
2019-05-15T16:25:58.250Z,100849.87
2019-05-15T16:28:28.965Z,100850.77
2019-05-15T16:30:58.580Z,100847.23
2019-05-15T16:33:28.351Z,100846.48
2019-05-15T16:35:58.069Z,100841.89
2019-05-15T16:38:28.399Z,100851.06
2019-05-15T16:40:58.240Z,100854.88
2019-05-15T16:43:28.600Z,100850.69
2019-05-15T16:45:58.627Z,100849.05
2019-05-15T16:48:29.390Z,100846.31
2019-05-15T16:50:58.163Z,100842.76
2019-05-15T16:53:28.821Z,100842.58
2019-05-15T16:55:58.635Z,100838.72
2019-05-15T16:58:29.561Z,100846.98
2019-05-15T17:00:58.576Z,100834.61
2019-05-15T17:03:28.917Z,100832.67
2019-05-15T17:05:58.817Z,100838.13
2019-05-15T17:08:28.892Z,100838.88
2019-05-15T17:10:58.631Z,100837.63
2019-05-15T17:13:28.761Z,100837.08
2019-05-15T17:15:58.428Z,100846.58
2019-05-15T17:18:27.209Z,100834.67
2019-05-15T17:20:55.757Z,100846.90
2019-05-15T17:23:24.528Z,100844.30
2019-05-15T17:25:53.294Z,100846.19
2019-05-15T17:28:21.809Z,100846.27
2019-05-15T17:30:50.313Z,100844.08
2019-05-15T17:33:18.805Z,100843.70
2019-05-15T17:35:48.716Z,100843.05
2019-05-15T17:38:18.247Z,100834.67
2019-05-15T17:40:48.412Z,100843.80
2019-05-15T17:43:18.304Z,100843.12
2019-05-15T17:45:48.235Z,100845.27
2019-05-15T17:48:19.371Z,100842.78
2019-05-15T17:50:51.777Z,100837.23
2019-05-15T17:53:18.213Z,100837.95
2019-05-15T17:55:47.938Z,100837.45
2019-05-15T17:58:16.614Z,100849.33
2019-05-15T18:00:45.293Z,100846.25
2019-05-15T18:03:13.836Z,100853.73
2019-05-15T18:05:42.359Z,100852.25
2019-05-15T18:08:10.880Z,100854.85
2019-05-15T18:10:39.404Z,100861.16
2019-05-15T18:13:08.898Z,100858.53
2019-05-15T18:15:38.536Z,100862.61
2019-05-15T18:18:09.422Z,100861.52
2019-05-15T18:20:38.403Z,100854.27
2019-05-15T18:23:08.443Z,100863.85
2019-05-15T18:25:38.439Z,100865.86
2019-05-15T18:28:08.551Z,100865.51
2019-05-15T18:30:38.854Z,100867.47
2019-05-15T18:33:08.726Z,100861.50
2019-05-15T18:35:38.593Z,100856.83
2019-05-15T18:38:08.593Z,100858.26
2019-05-15T18:40:38.417Z,100876.14
2019-05-15T18:43:09.780Z,100873.73
2019-05-15T18:45:38.353Z,100871.27
2019-05-15T18:48:07.007Z,100869.54
2019-05-15T18:50:37.728Z,100869.68
2019-05-15T18:53:08.746Z,100873.97
2019-05-15T18:55:38.585Z,100880.13
2019-05-15T18:58:08.334Z,100875.20
2019-05-15T19:00:39.696Z,100887.09
2019-05-15T19:03:19.224Z,100883.11
2019-05-15T19:05:38.650Z,100889.98
2019-05-15T19:08:08.436Z,100888.87
2019-05-15T19:10:38.638Z,100892.17
2019-05-15T19:13:08.547Z,100891.81
2019-05-15T19:15:38.069Z,100897.87
2019-05-15T19:18:08.036Z,100899.48
2019-05-15T19:20:38.855Z,100898.14
2019-05-15T19:23:08.078Z,100894.27
2019-05-15T19:25:36.865Z,100894.84
2019-05-15T19:28:05.395Z,100904.91
2019-05-15T19:30:34.061Z,100901.25
2019-05-15T19:33:02.730Z,100902.41
2019-05-15T19:35:31.324Z,100903.48
2019-05-15T19:37:59.987Z,100904.34
2019-05-15T19:40:28.724Z,100900.81
2019-05-15T19:42:59.012Z,100906.25
2019-05-15T19:45:28.350Z,100901.67
2019-05-15T19:47:58.792Z,100903.49
2019-05-15T19:50:28.688Z,100906.23
2019-05-15T19:52:59.090Z,100907.94
2019-05-15T19:55:28.191Z,100899.28
2019-05-15T19:57:58.759Z,100905.42
2019-05-15T20:00:28.579Z,100898.01
2019-05-15T20:02:58.089Z,100905.89
2019-05-15T20:05:28.959Z,100899.92
2019-05-15T20:07:58.762Z,100908.21
2019-05-15T20:10:29.308Z,100899.27
2019-05-15T20:12:58.524Z,100902.78
2019-05-15T20:15:28.514Z,100901.42
2019-05-15T20:17:57.317Z,100903.72
2019-05-15T20:20:28.038Z,100905.48
2019-05-15T20:22:59.370Z,100910.23
2019-05-15T20:25:27.780Z,100909.00
2019-05-15T20:27:56.997Z,100909.31
2019-05-15T20:30:25.619Z,100906.07
2019-05-15T20:32:54.134Z,100911.19
2019-05-15T20:35:22.660Z,100910.55
2019-05-15T20:37:51.509Z,100912.63
2019-05-15T20:40:20.036Z,100909.73
2019-05-15T20:42:48.866Z,100907.17
2019-05-15T20:45:18.494Z,100906.72
2019-05-15T20:47:47.156Z,100903.34
2019-05-15T20:50:15.679Z,100906.02
2019-05-15T20:52:44.245Z,100899.17
2019-05-15T20:55:13.144Z,100892.84
2019-05-15T20:57:41.696Z,100893.20
2019-05-15T21:00:12.816Z,100888.31
2019-05-15T21:02:41.337Z,100891.02
2019-05-15T21:05:09.843Z,100891.16
2019-05-15T21:07:42.739Z,100884.53
2019-05-15T21:10:10.257Z,100883.45
2019-05-15T21:12:41.040Z,100882.56
2019-05-15T21:15:09.999Z,100881.28
2019-05-15T21:17:39.399Z,100885.52
2019-05-15T21:20:09.594Z,100878.33
2019-05-15T21:22:40.323Z,100873.26
2019-05-15T21:25:10.770Z,100868.25
2019-05-15T21:27:42.384Z,100863.24
2019-05-15T21:30:09.549Z,100860.86
2019-05-15T21:32:38.396Z,100854.45
2019-05-15T21:35:09.095Z,100851.97
2019-05-15T21:37:38.918Z,100852.69
2019-05-15T21:40:08.706Z,100848.86
2019-05-15T21:42:39.000Z,100852.38
2019-05-15T21:45:13.932Z,100851.81
2019-05-15T21:47:38.771Z,100853.25
2019-05-15T21:50:08.089Z,100843.05
2019-05-15T21:52:38.961Z,100840.37
2019-05-15T21:55:09.206Z,100833.41
2019-05-15T21:57:40.076Z,100838.83
2019-05-15T22:00:12.788Z,100838.20
2019-05-15T22:02:41.309Z,100833.03
2019-05-15T22:05:09.858Z,100832.02
2019-05-15T22:07:38.910Z,100828.45
2019-05-15T22:10:10.414Z,100833.94
2019-05-15T22:12:37.815Z,100827.05
2019-05-15T22:15:06.822Z,100825.55
2019-05-15T22:17:38.723Z,100826.84
2019-05-15T22:20:08.661Z,100826.84
2019-05-15T22:22:37.492Z,100827.86
2019-05-15T22:25:08.541Z,100829.91
2019-05-15T22:27:38.296Z,100822.87
2019-05-15T22:30:08.247Z,100817.30
2019-05-15T22:32:41.243Z,100814.49
2019-05-15T22:35:13.385Z,100817.72
2019-05-15T22:37:38.783Z,100809.64
2019-05-15T22:40:08.915Z,100806.54
2019-05-15T22:42:39.058Z,100802.84
2019-05-15T22:45:11.599Z,100800.94
2019-05-15T22:47:39.157Z,100793.72
2019-05-15T22:50:08.460Z,100784.84
2019-05-15T22:52:38.973Z,100782.69
2019-05-15T22:55:07.327Z,100781.08
2019-05-15T22:57:35.834Z,100781.42
2019-05-15T23:00:04.682Z,100778.59
2019-05-15T23:02:33.660Z,100782.64
2019-05-15T23:05:02.165Z,100775.61
2019-05-15T23:07:30.667Z,100782.12
2019-05-15T23:09:59.415Z,100780.42
2019-05-15T23:12:28.738Z,100774.52
2019-05-15T23:14:57.904Z,100767.81
2019-05-15T23:17:27.728Z,100774.42
2019-05-15T23:19:58.195Z,100770.01
2019-05-15T23:22:27.923Z,100771.72
2019-05-15T23:24:58.506Z,100757.69
2019-05-15T23:27:28.728Z,100760.58
2019-05-15T23:29:58.221Z,100752.88
2019-05-15T23:32:28.836Z,100755.75
2019-05-15T23:34:58.408Z,100746.67
2019-05-15T23:37:28.084Z,100746.33
2019-05-15T23:39:57.995Z,100740.97
2019-05-15T23:42:28.991Z,100738.30
2019-05-15T23:44:56.905Z,100730.97
2019-05-15T23:47:25.415Z,100729.54
2019-05-15T23:49:53.954Z,100724.03
2019-05-15T23:52:22.469Z,100714.03
2019-05-15T23:54:50.988Z,100713.83
2019-05-15T23:57:19.497Z,100703.36
2019-05-15T23:59:48.017Z,100703.03
